createdAt,value
2023-04-15T00:01:24.800Z,1.50
2023-04-15T00:03:29.865Z,1.60
2023-04-15T00:05:33.168Z,1.60
2023-04-15T00:07:35.809Z,1.60
2023-04-15T00:09:38.701Z,1.40
2023-04-15T00:11:41.385Z,1.40
2023-04-15T00:13:44.393Z,1.43
2023-04-15T00:15:47.336Z,1.40
2023-04-15T00:17:51.902Z,1.67
2023-04-15T00:19:55.888Z,1.50
2023-04-15T00:21:59.024Z,1.30
2023-04-15T00:24:01.879Z,1.13
2023-04-15T00:26:04.668Z,1.43
2023-04-15T00:28:07.339Z,1.50
2023-04-15T00:30:11.724Z,1.53
2023-04-15T00:32:14.450Z,1.37
2023-04-15T00:34:17.357Z,1.50
2023-04-15T00:36:21.279Z,2.00
2023-04-15T00:38:24.325Z,1.37
2023-04-15T00:40:27.816Z,1.00
2023-04-15T00:42:30.531Z,1.10
2023-04-15T00:44:33.460Z,1.77
2023-04-15T00:46:37.092Z,1.20
2023-04-15T00:48:39.936Z,1.20
2023-04-15T00:50:42.598Z,1.20
2023-04-15T00:52:46.798Z,3.13
2023-04-15T00:54:51.210Z,1.47
2023-04-15T00:56:53.893Z,1.10
2023-04-15T00:58:56.571Z,1.10
2023-04-15T01:00:59.222Z,1.17
2023-04-15T01:03:03.176Z,1.10
2023-04-15T01:05:07.656Z,1.57
2023-04-15T01:07:10.344Z,1.10
2023-04-15T01:09:14.303Z,1.10
2023-04-15T01:11:17.403Z,1.17
2023-04-15T01:13:21.572Z,1.13
2023-04-15T01:15:24.254Z,2.70
2023-04-15T01:17:27.028Z,1.00
2023-04-15T01:19:30.210Z,1.20
2023-04-15T01:21:33.363Z,1.93
2023-04-15T01:23:38.571Z,1.30
2023-04-15T01:25:42.500Z,1.30
2023-04-15T01:27:45.614Z,1.13
2023-04-15T01:29:48.344Z,1.10
2023-04-15T01:31:52.836Z,1.20
2023-04-15T01:33:55.498Z,1.10
2023-04-15T01:35:58.685Z,1.00
2023-04-15T01:38:03.420Z,1.10
2023-04-15T01:40:07.307Z,0.90
2023-04-15T01:42:11.627Z,1.20
2023-04-15T01:44:14.837Z,1.10
2023-04-15T01:46:17.573Z,1.17
2023-04-15T01:48:20.259Z,1.00
2023-04-15T01:50:22.911Z,1.00
2023-04-15T01:52:26.121Z,1.00
2023-04-15T01:54:28.823Z,1.10
2023-04-15T01:56:31.494Z,0.93
2023-04-15T01:58:35.840Z,1.80
2023-04-15T02:00:38.995Z,1.10
2023-04-15T02:02:41.998Z,1.10
2023-04-15T02:04:45.286Z,1.00
2023-04-15T02:06:47.991Z,1.00
2023-04-15T02:08:51.120Z,1.00
2023-04-15T02:10:53.780Z,0.80
2023-04-15T02:12:56.442Z,1.07
2023-04-15T02:15:00.466Z,1.20
2023-04-15T02:17:07.333Z,0.90
2023-04-15T02:19:09.986Z,0.93
2023-04-15T02:21:12.634Z,1.20
2023-04-15T02:23:15.768Z,1.10
2023-04-15T02:25:20.216Z,0.90
2023-04-15T02:27:22.920Z,0.87
2023-04-15T02:29:25.640Z,1.10
2023-04-15T02:31:29.701Z,0.83
2023-04-15T02:33:33.343Z,0.90
2023-04-15T02:35:39.235Z,0.90
2023-04-15T02:37:44.032Z,2.40
2023-04-15T02:39:46.795Z,1.10
2023-04-15T02:41:52.049Z,0.90
2023-04-15T02:43:54.738Z,1.13
2023-04-15T02:45:57.507Z,1.20
2023-04-15T02:48:05.914Z,0.80
2023-04-15T02:50:12.412Z,1.47
2023-04-15T02:52:15.118Z,1.40
2023-04-15T02:54:17.844Z,0.87
2023-04-15T02:56:23.256Z,1.00
2023-04-15T02:58:26.682Z,1.10
2023-04-15T03:00:29.309Z,1.10
2023-04-15T03:02:35.360Z,0.87
2023-04-15T03:04:39.830Z,0.90
2023-04-15T03:06:42.539Z,0.90
2023-04-15T03:08:45.618Z,1.00
2023-04-15T03:10:48.467Z,2.40
2023-04-15T03:12:51.654Z,0.80
2023-04-15T03:14:54.343Z,1.00
2023-04-15T03:17:00.295Z,0.97
2023-04-15T03:19:03.275Z,1.00
2023-04-15T03:21:08.104Z,1.00
2023-04-15T03:23:11.101Z,0.90
2023-04-15T03:25:13.771Z,1.00
2023-04-15T03:27:16.403Z,0.90
2023-04-15T03:29:19.380Z,0.80
2023-04-15T03:31:22.057Z,0.97
2023-04-15T03:33:24.835Z,1.03
2023-04-15T03:35:27.521Z,1.60
2023-04-15T03:37:31.746Z,1.00
2023-04-15T03:39:34.461Z,0.87
2023-04-15T03:41:37.130Z,1.10
2023-04-15T03:43:39.843Z,0.80
2023-04-15T03:45:43.099Z,0.90
2023-04-15T03:47:45.902Z,0.80
2023-04-15T03:49:48.631Z,1.30
2023-04-15T03:51:51.622Z,0.90
2023-04-15T03:53:56.035Z,1.00
2023-04-15T03:55:58.707Z,3.00
2023-04-15T03:58:01.637Z,1.10
2023-04-15T04:00:04.837Z,1.10
2023-04-15T04:02:07.922Z,1.10
2023-04-15T04:04:10.832Z,0.93
2023-04-15T04:06:13.505Z,0.90
2023-04-15T04:08:16.366Z,1.10
2023-04-15T04:10:20.772Z,0.80
2023-04-15T04:12:23.439Z,0.80
2023-04-15T04:14:29.651Z,0.93
2023-04-15T04:16:32.761Z,0.80
2023-04-15T04:18:35.412Z,1.20
2023-04-15T04:20:38.095Z,1.10
2023-04-15T04:22:41.269Z,2.60
2023-04-15T04:24:44.423Z,1.10
2023-04-15T04:26:48.422Z,1.17
2023-04-15T04:28:51.175Z,1.00
2023-04-15T04:30:53.874Z,1.10
2023-04-15T04:32:57.034Z,1.30
2023-04-15T04:34:59.718Z,1.20
2023-04-15T04:37:02.382Z,1.10
2023-04-15T04:39:05.097Z,1.50
2023-04-15T04:41:08.099Z,1.00
2023-04-15T04:43:12.276Z,1.13
2023-04-15T04:45:15.130Z,1.20
2023-04-15T04:47:17.809Z,1.23
2023-04-15T04:49:20.883Z,1.60
2023-04-15T04:51:23.542Z,1.63
2023-04-15T04:53:26.415Z,1.37
2023-04-15T04:55:29.203Z,1.50
2023-04-15T04:57:32.150Z,1.40
2023-04-15T04:59:36.530Z,1.27
2023-04-15T05:01:39.284Z,1.50
2023-04-15T05:03:42.901Z,1.17
2023-04-15T05:05:45.893Z,1.47
2023-04-15T05:07:50.238Z,1.73
2023-04-15T05:09:53.423Z,1.23
2023-04-15T05:11:56.682Z,1.50
2023-04-15T05:13:59.763Z,1.60
2023-04-15T05:16:03.760Z,1.60
2023-04-15T05:18:07.001Z,1.50
2023-04-15T05:20:10.519Z,1.33
2023-04-15T05:22:19.454Z,1.40
2023-04-15T05:24:22.384Z,1.60
2023-04-15T05:26:25.467Z,1.40
2023-04-15T05:28:28.353Z,1.30
2023-04-15T05:30:31.217Z,1.60
2023-04-15T05:32:35.231Z,1.60
2023-04-15T05:34:38.397Z,1.40
2023-04-15T05:36:41.093Z,1.50
2023-04-15T05:38:43.757Z,1.40
2023-04-15T05:40:46.425Z,1.20
2023-04-15T05:42:49.442Z,1.67
2023-04-15T05:44:52.134Z,1.40
2023-04-15T05:46:54.824Z,1.40
2023-04-15T05:48:58.896Z,1.40
2023-04-15T05:51:05.129Z,1.20
2023-04-15T05:53:08.237Z,1.50
2023-04-15T05:55:11.604Z,1.50
2023-04-15T05:57:14.253Z,1.23
2023-04-15T05:59:17.390Z,1.73
2023-04-15T06:01:20.679Z,1.60
2023-04-15T06:03:23.935Z,1.60
2023-04-15T06:05:28.106Z,1.73
2023-04-15T06:07:32.217Z,1.90
2023-04-15T06:09:35.181Z,1.87
2023-04-15T06:11:37.901Z,1.80
2023-04-15T06:13:40.564Z,2.00
2023-04-15T06:15:43.518Z,2.03
2023-04-15T06:17:46.282Z,1.53
2023-04-15T06:19:50.365Z,1.80
2023-04-15T06:21:54.366Z,2.10
2023-04-15T06:23:57.663Z,2.40
2023-04-15T06:26:00.361Z,2.93
2023-04-15T06:28:03.399Z,2.67
2023-04-15T06:30:06.950Z,2.83
2023-04-15T06:32:10.255Z,2.30
2023-04-15T06:34:12.908Z,2.33
2023-04-15T06:36:15.764Z,2.57
2023-04-15T06:38:19.720Z,2.03
2023-04-15T06:40:22.836Z,2.00
2023-04-15T06:42:25.626Z,2.30
2023-04-15T06:44:28.326Z,2.60
2023-04-15T06:46:31.002Z,2.47
2023-04-15T06:48:34.163Z,2.20
2023-04-15T06:50:36.862Z,2.40
2023-04-15T06:52:39.698Z,2.60
2023-04-15T06:54:43.662Z,2.10
2023-04-15T06:56:47.433Z,2.80
2023-04-15T06:58:50.539Z,2.10
2023-04-15T07:00:53.827Z,2.13
2023-04-15T07:02:56.613Z,2.37
2023-04-15T07:04:59.680Z,3.50
2023-04-15T07:07:02.593Z,3.43
2023-04-15T07:09:05.912Z,2.80
2023-04-15T07:11:10.038Z,3.00
2023-04-15T07:13:14.381Z,2.47
2023-04-15T07:15:17.099Z,2.70
2023-04-15T07:17:19.830Z,2.50
2023-04-15T07:19:23.263Z,3.00
2023-04-15T07:21:27.671Z,2.53
2023-04-15T07:23:30.634Z,3.53
2023-04-15T07:25:33.443Z,2.43
2023-04-15T07:27:37.375Z,2.50
2023-04-15T07:29:40.430Z,2.70
2023-04-15T07:31:43.252Z,2.63
2023-04-15T07:33:46.174Z,2.50
2023-04-15T07:35:49.354Z,2.60
2023-04-15T07:37:52.189Z,2.23
2023-04-15T07:39:54.851Z,2.60
2023-04-15T07:41:59.056Z,2.20
2023-04-15T07:44:03.983Z,2.30
2023-04-15T07:46:06.969Z,2.27
2023-04-15T07:48:09.828Z,2.63
2023-04-15T07:50:12.693Z,2.73
2023-04-15T07:52:15.902Z,2.07
2023-04-15T07:54:18.654Z,2.17
2023-04-15T07:56:21.876Z,2.50
2023-04-15T07:58:24.563Z,2.23
2023-04-15T08:00:28.713Z,2.40
2023-04-15T08:02:31.691Z,1.83
2023-04-15T08:04:34.569Z,2.13
2023-04-15T08:06:40.044Z,2.03
2023-04-15T08:08:43.101Z,2.20
2023-04-15T08:10:45.890Z,1.80
2023-04-15T08:12:49.539Z,2.10
2023-04-15T08:14:52.239Z,1.50
2023-04-15T08:16:56.392Z,1.97
2023-04-15T08:18:59.754Z,1.77
2023-04-15T08:21:02.980Z,1.87
2023-04-15T08:23:05.778Z,2.00
2023-04-15T08:25:09.012Z,1.70
2023-04-15T08:27:12.184Z,1.93
2023-04-15T08:29:15.010Z,1.47
2023-04-15T08:31:18.006Z,1.90
2023-04-15T08:33:22.299Z,1.80
2023-04-15T08:35:25.398Z,1.73
2023-04-15T08:37:28.170Z,1.60
2023-04-15T08:39:31.066Z,1.90
2023-04-15T08:41:36.393Z,1.90
2023-04-15T08:43:45.772Z,1.83
2023-04-15T08:45:48.740Z,1.50
2023-04-15T08:47:51.917Z,2.10
2023-04-15T08:49:56.190Z,1.47
2023-04-15T08:51:59.866Z,1.73
2023-04-15T08:54:03.019Z,1.80
2023-04-15T08:56:07.061Z,1.60
2023-04-15T08:58:10.522Z,1.40
2023-04-15T09:00:15.007Z,1.80
2023-04-15T09:02:18.229Z,1.83
2023-04-15T09:04:21.089Z,1.67
2023-04-15T09:06:25.113Z,1.53
2023-04-15T09:08:28.271Z,1.80
2023-04-15T09:10:30.945Z,1.70
2023-04-15T09:12:36.154Z,1.63
2023-04-15T09:14:39.889Z,1.50
2023-04-15T09:16:57.712Z,1.67
2023-04-15T09:19:00.801Z,1.60
2023-04-15T09:21:08.952Z,1.30
2023-04-15T09:23:17.538Z,1.30
2023-04-15T09:25:28.742Z,1.53
2023-04-15T09:27:31.618Z,1.23
2023-04-15T09:29:34.328Z,1.33
2023-04-15T09:31:37.873Z,1.60
2023-04-15T09:33:55.865Z,1.67
2023-04-15T09:35:59.967Z,1.20
2023-04-15T09:38:04.550Z,1.40
2023-04-15T09:40:10.131Z,1.27
2023-04-15T09:42:12.862Z,1.50
2023-04-15T09:44:23.886Z,1.40
2023-04-15T09:46:42.259Z,1.23
2023-04-15T09:48:45.014Z,1.50
2023-04-15T09:50:48.952Z,1.33
2023-04-15T09:52:51.674Z,1.63
2023-04-15T09:54:55.326Z,1.20
2023-04-15T09:57:06.192Z,1.40
2023-04-15T09:59:10.081Z,1.30
2023-04-15T10:01:12.964Z,1.13
2023-04-15T10:03:16.986Z,1.30
2023-04-15T10:05:19.903Z,1.40
2023-04-15T10:07:23.717Z,1.40
2023-04-15T10:09:26.666Z,1.23
2023-04-15T10:11:31.602Z,1.50
2023-04-15T10:13:37.409Z,1.27
2023-04-15T10:15:40.477Z,1.17
2023-04-15T10:17:43.321Z,1.40
2023-04-15T10:19:47.323Z,1.43
2023-04-15T10:21:50.553Z,1.40
2023-04-15T10:23:53.242Z,1.40
2023-04-15T10:25:56.186Z,1.40
2023-04-15T10:27:59.044Z,1.10
2023-04-15T10:30:03.922Z,1.50
2023-04-15T10:32:06.842Z,1.20
2023-04-15T10:34:09.553Z,1.40
2023-04-15T10:36:12.592Z,1.20
2023-04-15T10:38:34.265Z,1.50
2023-04-15T10:40:38.280Z,1.27
2023-04-15T10:42:40.980Z,1.40
2023-04-15T10:44:44.429Z,1.20
2023-04-15T10:46:48.835Z,1.40
2023-04-15T10:48:52.477Z,1.10
2023-04-15T10:50:57.483Z,1.27
2023-04-15T10:53:00.296Z,1.23
2023-04-15T10:55:04.537Z,1.07
2023-04-15T10:57:09.170Z,1.10
2023-04-15T10:59:11.898Z,1.10
2023-04-15T11:01:14.581Z,1.10
2023-04-15T11:03:19.137Z,0.90
2023-04-15T11:05:23.015Z,1.10
2023-04-15T11:07:36.155Z,0.90
2023-04-15T11:09:38.856Z,1.10
2023-04-15T11:12:06.161Z,1.03
2023-04-15T11:14:08.811Z,1.10
2023-04-15T11:16:13.561Z,1.50
2023-04-15T11:18:17.210Z,1.20
2023-04-15T11:20:21.217Z,1.13
2023-04-15T11:22:23.867Z,1.13
2023-04-15T11:24:27.450Z,1.20
2023-04-15T11:26:30.384Z,1.20
2023-04-15T11:28:33.476Z,1.00
2023-04-15T11:30:37.721Z,1.00
2023-04-15T11:32:44.100Z,1.37
2023-04-15T11:34:48.494Z,1.23
2023-04-15T11:36:52.754Z,1.20
2023-04-15T11:38:55.971Z,1.10
2023-04-15T11:40:58.791Z,1.50
2023-04-15T11:43:06.390Z,1.30
2023-04-15T11:45:09.573Z,1.57
2023-04-15T11:47:23.714Z,1.10
2023-04-15T11:49:28.545Z,1.03
2023-04-15T11:51:33.562Z,1.30
2023-04-15T11:53:40.663Z,1.17
2023-04-15T11:55:45.128Z,1.40
2023-04-15T11:57:47.809Z,1.13
2023-04-15T11:59:50.447Z,1.60
2023-04-15T12:01:53.425Z,1.07
2023-04-15T12:03:57.064Z,1.20
2023-04-15T12:06:05.102Z,1.10
2023-04-15T12:08:08.020Z,0.90
2023-04-15T12:10:12.033Z,1.10
2023-04-15T12:12:14.750Z,1.13
2023-04-15T12:14:21.508Z,1.00
2023-04-15T12:16:24.948Z,1.30
2023-04-15T12:18:27.631Z,1.33
2023-04-15T12:20:30.600Z,0.90
2023-04-15T12:22:34.527Z,0.90
2023-04-15T12:24:38.181Z,1.17
2023-04-15T12:26:46.432Z,1.00
2023-04-15T12:28:49.084Z,1.20
2023-04-15T12:30:52.509Z,1.00
2023-04-15T12:32:55.695Z,1.10
2023-04-15T12:34:58.899Z,0.97
2023-04-15T12:37:03.113Z,1.20
2023-04-15T12:39:06.199Z,1.10
2023-04-15T12:41:09.230Z,1.20
2023-04-15T12:43:13.428Z,1.00
2023-04-15T12:45:16.208Z,1.10
2023-04-15T12:47:18.885Z,0.80
2023-04-15T12:49:21.788Z,1.30
2023-04-15T12:51:24.447Z,1.00
2023-04-15T12:53:27.518Z,1.10
2023-04-15T12:55:30.555Z,0.97
2023-04-15T12:57:33.262Z,1.20
2023-04-15T12:59:37.532Z,0.90
2023-04-15T13:01:40.812Z,1.10
2023-04-15T13:03:43.759Z,1.07
2023-04-15T13:05:46.502Z,1.00
2023-04-15T13:07:49.282Z,0.90
2023-04-15T13:09:51.978Z,1.00
2023-04-15T13:11:55.028Z,1.10
2023-04-15T13:13:58.034Z,1.30
2023-04-15T13:16:02.192Z,0.90
2023-04-15T13:18:06.287Z,1.00
2023-04-15T13:20:09.754Z,1.17
2023-04-15T13:22:12.620Z,1.03
2023-04-15T13:24:15.846Z,1.30
2023-04-15T13:26:19.040Z,1.00
2023-04-15T13:28:22.336Z,1.10
2023-04-15T13:30:25.013Z,0.80
2023-04-15T13:32:29.008Z,1.27
2023-04-15T13:34:31.685Z,1.20
2023-04-15T13:36:34.407Z,1.07
2023-04-15T13:38:37.164Z,1.20
2023-04-15T13:40:40.765Z,1.10
2023-04-15T13:42:43.551Z,1.20
2023-04-15T13:44:46.451Z,1.10
2023-04-15T13:46:49.452Z,1.10
2023-04-15T13:48:54.122Z,1.00
2023-04-15T13:50:56.806Z,0.90
2023-04-15T13:52:59.491Z,1.00
2023-04-15T13:55:18.325Z,1.47
2023-04-15T13:57:23.073Z,1.30
2023-04-15T13:59:26.139Z,1.10
2023-04-15T14:01:28.961Z,1.30
2023-04-15T14:03:32.350Z,1.03
2023-04-15T14:05:36.550Z,1.10
2023-04-15T14:07:39.314Z,1.00
2023-04-15T14:09:43.529Z,1.20
2023-04-15T14:11:46.598Z,1.10
2023-04-15T14:13:49.532Z,1.03
2023-04-15T14:15:52.775Z,1.17
2023-04-15T14:17:56.869Z,1.10
2023-04-15T14:19:59.891Z,1.40
2023-04-15T14:22:04.479Z,1.20
2023-04-15T14:24:07.632Z,1.00
2023-04-15T14:26:10.419Z,1.27
2023-04-15T14:28:13.112Z,1.40
2023-04-15T14:30:15.784Z,1.17
2023-04-15T14:32:18.797Z,1.10
2023-04-15T14:34:25.151Z,1.40
2023-04-15T14:36:28.413Z,1.53
2023-04-15T14:38:33.684Z,1.33
2023-04-15T14:40:36.832Z,1.20
2023-04-15T14:42:39.566Z,1.20
2023-04-15T14:44:44.151Z,1.27
2023-04-15T14:46:46.950Z,1.17
2023-04-15T14:48:50.337Z,1.30
2023-04-15T14:50:53.074Z,1.00
2023-04-15T14:52:55.737Z,1.30
2023-04-15T14:54:59.837Z,1.67
2023-04-15T14:57:02.904Z,1.33
2023-04-15T14:59:06.146Z,1.40
2023-04-15T15:01:10.447Z,1.50
2023-04-15T15:03:13.977Z,1.90
2023-04-15T15:05:19.994Z,2.37
2023-04-15T15:07:23.349Z,1.93
2023-04-15T15:09:26.622Z,1.90
2023-04-15T15:11:31.759Z,1.90
2023-04-15T15:13:34.423Z,1.80
2023-04-15T15:15:37.942Z,2.40
2023-04-15T15:17:40.867Z,2.50
2023-04-15T15:19:43.844Z,2.40
2023-04-15T15:21:46.996Z,2.23
2023-04-15T15:23:50.053Z,2.53
2023-04-15T15:25:55.905Z,2.07
2023-04-15T15:28:01.762Z,2.57
2023-04-15T15:30:04.662Z,2.60
2023-04-15T15:32:07.626Z,2.50
2023-04-15T15:34:10.637Z,2.80
2023-04-15T15:36:13.328Z,2.57
2023-04-15T15:38:16.156Z,2.50
2023-04-15T15:40:18.868Z,2.70
2023-04-15T15:42:21.806Z,3.23
2023-04-15T15:44:25.902Z,3.10
2023-04-15T15:46:31.263Z,2.40
2023-04-15T15:48:34.144Z,2.40
2023-04-15T15:50:37.287Z,2.33
2023-04-15T15:52:40.117Z,2.53
2023-04-15T15:54:43.026Z,2.47
2023-04-15T15:56:45.735Z,2.70
2023-04-15T15:58:48.749Z,3.20
2023-04-15T16:00:52.772Z,3.40
2023-04-15T16:03:06.760Z,3.00
2023-04-15T16:05:10.706Z,2.87
2023-04-15T16:07:15.396Z,3.10
2023-04-15T16:09:18.204Z,2.83
2023-04-15T16:11:20.909Z,3.13
2023-04-15T16:13:23.645Z,2.97
2023-04-15T16:15:26.851Z,2.53
2023-04-15T16:17:33.760Z,2.77
2023-04-15T16:19:36.464Z,2.53
2023-04-15T16:21:39.163Z,2.40
2023-04-15T16:23:42.224Z,2.23
2023-04-15T16:25:45.373Z,3.00
2023-04-15T16:28:00.852Z,2.20
2023-04-15T16:30:09.389Z,2.33
2023-04-15T16:32:12.481Z,2.10
2023-04-15T16:34:17.475Z,2.03
2023-04-15T16:36:20.143Z,2.80
2023-04-15T16:38:23.029Z,4.70
2023-04-15T16:40:26.144Z,2.47
2023-04-15T16:42:28.823Z,2.33
2023-04-15T16:44:31.557Z,2.13
2023-04-15T16:46:34.263Z,2.30
2023-04-15T16:48:37.606Z,2.77
2023-04-15T16:50:41.569Z,2.80
2023-04-15T16:52:44.247Z,3.23
2023-04-15T16:54:46.918Z,2.80
2023-04-15T16:56:49.632Z,2.50
2023-04-15T16:58:52.326Z,2.57
2023-04-15T17:00:55.191Z,2.80
2023-04-15T17:02:58.120Z,2.60
2023-04-15T17:05:00.884Z,3.07
2023-04-15T17:07:06.138Z,2.83
2023-04-15T17:09:09.134Z,2.83
2023-04-15T17:11:12.193Z,3.57
2023-04-15T17:13:15.256Z,2.90
2023-04-15T17:15:18.106Z,3.00
2023-04-15T17:17:21.211Z,3.20
2023-04-15T17:19:24.017Z,2.73
2023-04-15T17:21:27.475Z,2.87
2023-04-15T17:23:32.142Z,2.67
2023-04-15T17:25:34.871Z,2.80
2023-04-15T17:27:38.643Z,3.10
2023-04-15T17:29:41.653Z,2.53
2023-04-15T17:31:44.458Z,2.53
2023-04-15T17:33:59.144Z,2.40
2023-04-15T17:36:09.626Z,3.00
2023-04-15T17:38:12.745Z,3.30
2023-04-15T17:40:16.920Z,2.80
2023-04-15T17:42:20.287Z,2.50
2023-04-15T17:44:25.066Z,2.80
2023-04-15T17:46:28.353Z,2.37
2023-04-15T17:48:31.037Z,2.63
2023-04-15T17:50:33.692Z,2.43
2023-04-15T17:52:36.372Z,2.63
2023-04-15T17:54:39.064Z,3.10
2023-04-15T17:56:43.025Z,2.63
2023-04-15T17:58:45.699Z,2.93
2023-04-15T18:00:48.411Z,2.50
2023-04-15T18:02:51.234Z,2.53
2023-04-15T18:04:54.234Z,2.70
2023-04-15T18:06:57.292Z,2.87
2023-04-15T18:08:59.985Z,2.67
2023-04-15T18:11:02.764Z,3.10
2023-04-15T18:13:06.763Z,2.60
2023-04-15T18:15:10.781Z,2.33
2023-04-15T18:17:14.555Z,2.50
2023-04-15T18:19:17.907Z,2.27
2023-04-15T18:21:20.682Z,2.43
2023-04-15T18:23:23.641Z,2.77
2023-04-15T18:25:26.579Z,2.50
2023-04-15T18:27:29.236Z,3.07
2023-04-15T18:29:34.684Z,2.40
2023-04-15T18:31:37.687Z,3.13
2023-04-15T18:33:40.432Z,2.80
2023-04-15T18:35:43.680Z,2.60
2023-04-15T18:37:46.355Z,2.60
2023-04-15T18:39:49.380Z,2.90
2023-04-15T18:41:52.043Z,2.50
2023-04-15T18:43:55.992Z,2.67
2023-04-15T18:46:01.794Z,3.20
2023-04-15T18:48:05.525Z,3.23
2023-04-15T18:50:09.010Z,3.10
2023-04-15T18:52:11.889Z,2.37
2023-04-15T18:54:14.701Z,3.23
2023-04-15T18:56:17.765Z,3.17
2023-04-15T18:58:20.458Z,2.77
2023-04-15T19:00:23.163Z,2.70
2023-04-15T19:02:27.792Z,2.53
2023-04-15T19:04:31.018Z,2.50
2023-04-15T19:06:33.834Z,2.67
2023-04-15T19:08:36.485Z,2.90
2023-04-15T19:10:39.188Z,2.63
2023-04-15T19:12:41.918Z,3.37
2023-04-15T19:14:44.614Z,2.80
2023-04-15T19:16:47.418Z,2.73
2023-04-15T19:18:51.789Z,2.70
2023-04-15T19:20:55.877Z,3.17
2023-04-15T19:22:58.524Z,3.00
2023-04-15T19:25:01.517Z,2.73
2023-04-15T19:27:04.227Z,2.60
2023-04-15T19:29:07.138Z,3.10
2023-04-15T19:31:10.070Z,2.70
2023-04-15T19:33:13.122Z,2.43
2023-04-15T19:35:17.162Z,3.00
2023-04-15T19:37:19.878Z,3.00
2023-04-15T19:39:23.340Z,2.80
2023-04-15T19:41:26.369Z,2.63
2023-04-15T19:43:29.657Z,3.17
2023-04-15T19:45:32.646Z,2.83
2023-04-15T19:47:35.836Z,2.80
2023-04-15T19:49:38.700Z,2.60
2023-04-15T19:51:42.693Z,2.37
2023-04-15T19:53:45.492Z,2.63
2023-04-15T19:55:48.847Z,2.30
2023-04-15T19:57:51.593Z,3.00
2023-04-15T19:59:54.247Z,2.70
2023-04-15T20:01:57.074Z,2.60
2023-04-15T20:04:00.311Z,2.47
2023-04-15T20:06:03.731Z,2.57
2023-04-15T20:08:08.319Z,3.03
2023-04-15T20:10:13.316Z,2.70
2023-04-15T20:12:50.411Z,2.70
2023-04-15T20:14:39.218Z,2.23
2023-04-15T20:16:42.044Z,2.50
2023-04-15T20:18:45.996Z,2.23
2023-04-15T20:20:48.774Z,2.40
2023-04-15T20:22:52.930Z,2.90
2023-04-15T20:24:57.003Z,2.53
2023-04-15T20:27:00.708Z,2.57
2023-04-15T20:29:03.849Z,2.47
2023-04-15T20:31:06.812Z,2.53
2023-04-15T20:33:09.937Z,3.10
2023-04-15T20:35:13.045Z,2.90
2023-04-15T20:37:16.036Z,2.50
2023-04-15T20:39:18.854Z,2.30
2023-04-15T20:41:23.853Z,2.50
2023-04-15T20:43:27.302Z,3.03
2023-04-15T20:45:30.880Z,2.57
2023-04-15T20:47:34.273Z,2.53
2023-04-15T20:49:37.392Z,2.30
2023-04-15T20:51:40.501Z,2.90
2023-04-15T20:53:43.274Z,2.77
2023-04-15T20:55:45.974Z,2.73
2023-04-15T20:57:49.972Z,2.50
2023-04-15T20:59:52.965Z,2.87
2023-04-15T21:01:56.881Z,2.30
2023-04-15T21:03:59.840Z,2.50
2023-04-15T21:06:02.551Z,2.60
2023-04-15T21:08:05.948Z,2.77
2023-04-15T21:10:09.119Z,2.50
2023-04-15T21:12:11.936Z,2.87
2023-04-15T21:14:16.132Z,2.87
2023-04-15T21:16:18.865Z,2.90
2023-04-15T21:18:21.792Z,2.63
2023-04-15T21:20:24.546Z,2.53
2023-04-15T21:22:27.228Z,2.67
2023-04-15T21:24:30.510Z,2.70
2023-04-15T21:26:33.255Z,2.73
2023-04-15T21:28:37.124Z,2.43
2023-04-15T21:30:42.517Z,2.97
2023-04-15T21:32:45.333Z,2.90
2023-04-15T21:34:48.013Z,2.70
2023-04-15T21:36:51.069Z,2.97
2023-04-15T21:38:54.842Z,2.53
2023-04-15T21:40:58.039Z,2.47
2023-04-15T21:43:00.757Z,2.43
2023-04-15T21:45:04.099Z,2.40
2023-04-15T21:47:08.119Z,2.73
2023-04-15T21:49:11.481Z,2.80
2023-04-15T21:51:14.319Z,2.30
2023-04-15T21:53:17.513Z,2.37
2023-04-15T21:55:21.193Z,2.90
2023-04-15T21:57:23.901Z,2.93
2023-04-15T21:59:27.088Z,2.67
2023-04-15T22:01:30.467Z,2.30
2023-04-15T22:03:35.485Z,2.60
2023-04-15T22:05:38.280Z,2.80
2023-04-15T22:07:41.639Z,2.10
2023-04-15T22:09:44.316Z,2.70
2023-04-15T22:11:47.402Z,2.47
2023-04-15T22:13:50.122Z,2.40
2023-04-15T22:15:52.755Z,2.90
2023-04-15T22:17:55.748Z,3.20
2023-04-15T22:19:59.749Z,2.20
2023-04-15T22:22:02.622Z,2.60
2023-04-15T22:24:33.800Z,2.80
2023-04-15T22:26:28.728Z,2.60
2023-04-15T22:28:31.665Z,2.50
2023-04-15T22:30:34.789Z,3.10
2023-04-15T22:32:37.920Z,2.97
2023-04-15T22:34:40.594Z,2.23
2023-04-15T22:36:44.569Z,2.90
2023-04-15T22:38:47.277Z,2.33
2023-04-15T22:40:51.770Z,2.50
2023-04-15T22:42:54.530Z,2.23
2023-04-15T22:44:57.209Z,2.60
2023-04-15T22:46:59.867Z,2.50
2023-04-15T22:49:03.103Z,2.83
2023-04-15T22:51:06.244Z,2.77
2023-04-15T22:53:13.097Z,2.87
2023-04-15T22:55:15.853Z,2.50
2023-04-15T22:57:18.952Z,2.37
2023-04-15T22:59:21.650Z,2.73
2023-04-15T23:01:24.320Z,2.80
2023-04-15T23:03:27.339Z,2.53
2023-04-15T23:05:31.456Z,2.77
2023-04-15T23:07:34.174Z,2.10
2023-04-15T23:09:38.200Z,2.30
2023-04-15T23:11:41.000Z,2.90
2023-04-15T23:13:44.062Z,2.67
2023-04-15T23:15:46.827Z,2.50
2023-04-15T23:17:49.537Z,2.30
2023-04-15T23:19:52.247Z,2.57
2023-04-15T23:21:55.486Z,2.90
2023-04-15T23:23:58.190Z,2.53
2023-04-15T23:26:03.884Z,2.70
2023-04-15T23:28:07.000Z,2.43
2023-04-15T23:30:10.583Z,2.50
2023-04-15T23:32:13.306Z,2.57
2023-04-15T23:34:21.888Z,2.13
2023-04-15T23:36:24.779Z,2.40
2023-04-15T23:38:28.144Z,2.43
2023-04-15T23:40:30.903Z,2.37
2023-04-15T23:42:34.907Z,2.80
2023-04-15T23:44:38.301Z,2.63
2023-04-15T23:46:41.335Z,2.40
2023-04-15T23:48:44.051Z,2.30
2023-04-15T23:50:46.700Z,2.47
2023-04-15T23:52:49.359Z,2.83
2023-04-15T23:54:52.461Z,2.57
2023-04-15T23:56:55.109Z,1.83
2023-04-15T23:58:59.101Z,2.13
